createdAt,value
2019-01-24T00:02:17.191Z,146.13
2019-01-24T00:04:47.798Z,157.10
2019-01-24T00:07:18.466Z,150.23
2019-01-24T00:09:49.029Z,145.73
2019-01-24T00:12:19.542Z,140.97
2019-01-24T00:14:50.018Z,156.87
2019-01-24T00:17:20.477Z,154.17
2019-01-24T00:19:51.101Z,146.80
2019-01-24T00:22:21.640Z,148.37
2019-01-24T00:24:52.161Z,128.33
2019-01-24T00:27:22.629Z,142.97
2019-01-24T00:29:53.304Z,149.20
2019-01-24T00:32:23.758Z,156.87
2019-01-24T00:34:54.150Z,144.47
2019-01-24T00:37:24.711Z,144.20
2019-01-24T00:39:55.260Z,132.93
2019-01-24T00:42:26.068Z,142.63
2019-01-24T00:44:56.939Z,151.13
2019-01-24T00:47:27.687Z,146.90
2019-01-24T00:49:58.478Z,136.43
2019-01-24T00:52:28.931Z,155.60
2019-01-24T00:54:59.483Z,137.27
2019-01-24T00:57:29.919Z,138.83
2019-01-24T01:00:00.378Z,135.77
2019-01-24T01:02:31.043Z,135.83
2019-01-24T01:05:01.474Z,143.97
2019-01-24T01:07:32.155Z,144.00
2019-01-24T01:10:04.302Z,161.50
2019-01-24T01:12:36.204Z,160.27
2019-01-24T01:15:11.742Z,152.77
2019-01-24T01:17:46.761Z,152.93
2019-01-24T01:20:24.188Z,148.27
2019-01-24T01:22:55.011Z,154.60
2019-01-24T01:25:25.857Z,156.67
2019-01-24T01:28:04.685Z,147.87
2019-01-24T01:30:35.224Z,153.97
2019-01-24T01:33:05.901Z,141.63
2019-01-24T01:35:36.436Z,155.13
2019-01-24T01:38:06.809Z,146.43
2019-01-24T01:40:37.249Z,129.70
2019-01-24T01:43:08.197Z,151.33
2019-01-24T01:45:38.853Z,145.00
2019-01-24T01:48:09.344Z,155.53
2019-01-24T01:50:39.691Z,149.50
2019-01-24T01:53:10.393Z,161.53
2019-01-24T01:55:40.877Z,157.43
2019-01-24T01:58:11.334Z,165.13
2019-01-24T02:00:42.443Z,160.17
2019-01-24T02:03:13.231Z,169.33
2019-01-24T02:05:43.735Z,159.67
2019-01-24T02:08:14.294Z,141.27
2019-01-24T02:10:44.661Z,173.30
2019-01-24T02:13:15.377Z,151.10
2019-01-24T02:15:45.943Z,156.27
2019-01-24T02:18:16.633Z,172.70
2019-01-24T02:20:46.979Z,163.13
2019-01-24T02:23:17.523Z,183.33
2019-01-24T02:25:48.167Z,159.77
2019-01-24T02:28:18.744Z,164.03
2019-01-24T02:30:49.314Z,154.50
2019-01-24T02:33:20.115Z,170.83
2019-01-24T02:35:50.879Z,182.57
2019-01-24T02:38:21.480Z,186.13
2019-01-24T02:40:51.870Z,156.83
2019-01-24T02:43:22.409Z,192.43
2019-01-24T02:45:52.730Z,197.23
2019-01-24T02:48:23.171Z,179.90
2019-01-24T02:50:53.893Z,186.53
2019-01-24T02:53:24.528Z,155.03
2019-01-24T02:55:55.157Z,162.07
2019-01-24T02:58:25.956Z,196.47
2019-01-24T03:00:56.424Z,196.37
2019-01-24T03:03:27.475Z,196.70
2019-01-24T03:05:57.842Z,188.17
2019-01-24T03:08:28.184Z,176.83
2019-01-24T03:10:58.793Z,204.57
2019-01-24T03:13:29.108Z,195.13
2019-01-24T03:16:00.412Z,193.73
2019-01-24T03:18:30.843Z,164.43
2019-01-24T03:21:01.282Z,177.93
2019-01-24T03:23:31.657Z,187.33
2019-01-24T03:26:02.242Z,169.73
2019-01-24T03:28:32.553Z,176.57
2019-01-24T03:31:03.158Z,186.37
2019-01-24T03:33:33.926Z,185.30
2019-01-24T03:36:04.449Z,174.80
2019-01-24T03:38:35.018Z,187.77
2019-01-24T03:41:05.736Z,170.63
2019-01-24T03:43:36.379Z,183.23
2019-01-24T03:46:06.914Z,177.20
2019-01-24T03:48:37.632Z,171.77
2019-01-24T03:51:08.201Z,168.03
2019-01-24T03:53:38.655Z,183.27
2019-01-24T03:56:09.332Z,140.73
2019-01-24T03:58:39.838Z,174.80
2019-01-24T04:01:10.461Z,155.03
2019-01-24T04:03:41.310Z,164.43
2019-01-24T04:06:11.768Z,161.83
2019-01-24T04:08:42.545Z,163.00
2019-01-24T04:11:13.148Z,138.83
2019-01-24T04:13:43.579Z,137.37
2019-01-24T04:16:14.290Z,182.20
2019-01-24T04:18:44.835Z,163.80
2019-01-24T04:21:15.563Z,165.73
2019-01-24T04:23:46.115Z,158.73
2019-01-24T04:26:16.560Z,144.30
2019-01-24T04:28:47.046Z,139.53
2019-01-24T04:31:17.554Z,142.77
2019-01-24T04:33:48.289Z,109.10
2019-01-24T04:36:18.999Z,182.30
2019-01-24T04:38:49.706Z,135.30
2019-01-24T04:41:20.313Z,160.43
2019-01-24T04:43:51.047Z,137.80
2019-01-24T04:46:21.448Z,127.77
2019-01-24T04:48:52.184Z,143.03
2019-01-24T04:51:22.683Z,131.23
2019-01-24T04:53:53.538Z,130.17
2019-01-24T04:56:23.953Z,121.30
2019-01-24T04:58:54.443Z,128.23
2019-01-24T05:01:25.128Z,151.57
2019-01-24T05:03:55.669Z,124.60
2019-01-24T05:06:26.184Z,133.73
2019-01-24T05:08:56.975Z,118.63
2019-01-24T05:11:27.690Z,142.20
2019-01-24T05:13:58.263Z,142.00
2019-01-24T05:16:28.887Z,151.30
2019-01-24T05:18:59.246Z,155.43
2019-01-24T05:21:29.639Z,130.83
2019-01-24T05:24:00.378Z,145.30
2019-01-24T05:26:31.046Z,119.10
2019-01-24T05:29:01.931Z,145.47
2019-01-24T05:31:32.289Z,146.03
2019-01-24T05:34:02.662Z,128.60
2019-01-24T05:36:33.446Z,124.90
2019-01-24T05:39:05.445Z,108.07
2019-01-24T05:41:36.055Z,123.77
2019-01-24T05:44:06.461Z,202.75
2019-01-24T05:46:36.939Z,146.20
2019-01-24T05:49:07.729Z,140.60
2019-01-24T05:51:38.218Z,128.20
2019-01-24T05:54:08.653Z,132.83
2019-01-24T05:56:39.073Z,140.43
2019-01-24T05:59:09.604Z,113.97
2019-01-24T06:01:40.819Z,133.57
2019-01-24T06:04:12.285Z,130.60
2019-01-24T06:06:42.664Z,133.23
2019-01-24T06:09:13.240Z,142.10
2019-01-24T06:11:43.738Z,90.20
2019-01-24T06:14:14.540Z,108.67
2019-01-24T06:16:45.208Z,128.90
2019-01-24T06:19:15.941Z,118.27
2019-01-24T06:21:46.436Z,114.97
2019-01-24T06:24:17.085Z,124.93
2019-01-24T06:26:47.838Z,118.30
2019-01-24T06:29:19.661Z,125.60
2019-01-24T06:31:50.525Z,108.97
2019-01-24T06:34:21.471Z,131.00
2019-01-24T06:36:52.015Z,117.83
2019-01-24T06:39:22.663Z,124.10
2019-01-24T06:41:53.346Z,96.07
2019-01-24T06:44:24.211Z,131.93
2019-01-24T06:46:55.541Z,125.30
2019-01-24T06:49:26.133Z,125.80
2019-01-24T06:51:56.749Z,95.23
2019-01-24T06:54:27.891Z,132.50
2019-01-24T06:56:58.884Z,115.47
2019-01-24T06:59:29.780Z,127.80
2019-01-24T07:02:01.981Z,121.40
2019-01-24T07:04:33.042Z,120.90
2019-01-24T07:07:03.891Z,109.07
2019-01-24T07:09:34.497Z,128.13
2019-01-24T07:12:06.984Z,133.27
2019-01-24T07:14:37.600Z,129.93
2019-01-24T07:17:09.782Z,126.57
2019-01-24T07:19:40.699Z,111.13
2019-01-24T07:22:12.947Z,137.67
2019-01-24T07:24:46.458Z,128.37
2019-01-24T07:27:17.821Z,121.47
2019-01-24T07:29:48.486Z,131.37
2019-01-24T07:32:19.209Z,122.33
2019-01-24T07:34:49.921Z,137.20
2019-01-24T07:37:21.389Z,106.20
2019-01-24T07:39:51.976Z,109.97
2019-01-24T07:42:23.215Z,124.00
2019-01-24T07:44:55.247Z,134.57
2019-01-24T07:47:26.292Z,137.87
2019-01-24T07:49:57.489Z,124.87
2019-01-24T07:52:28.087Z,131.43
2019-01-24T07:54:59.190Z,138.03
2019-01-24T07:57:29.801Z,137.43
2019-01-24T08:00:00.698Z,135.33
2019-01-24T08:02:31.661Z,138.20
2019-01-24T08:05:05.631Z,139.67
2019-01-24T08:07:39.864Z,129.77
2019-01-24T08:10:13.942Z,129.37
2019-01-24T08:12:45.191Z,130.17
2019-01-24T08:15:17.459Z,147.10
2019-01-24T08:17:48.376Z,129.87
2019-01-24T08:20:21.321Z,137.40
2019-01-24T08:22:52.428Z,144.30
2019-01-24T08:25:24.393Z,142.27
2019-01-24T08:28:31.821Z,153.10
2019-01-24T08:31:03.127Z,154.70
2019-01-24T08:33:36.135Z,151.57
2019-01-24T08:36:07.540Z,145.10
2019-01-24T08:38:38.427Z,156.37
2019-01-24T08:41:13.187Z,164.87
2019-01-24T08:43:43.741Z,146.00
2019-01-24T08:46:14.612Z,164.83
2019-01-24T08:48:48.362Z,149.63
2019-01-24T08:51:19.047Z,174.90
2019-01-24T08:53:49.722Z,152.40
2019-01-24T08:56:20.626Z,147.43
2019-01-24T08:58:51.322Z,173.77
2019-01-24T09:01:22.495Z,151.03
2019-01-24T09:03:53.447Z,146.73
2019-01-24T09:06:25.256Z,156.27
2019-01-24T09:08:59.197Z,158.47
2019-01-24T09:11:30.482Z,183.87
2019-01-24T09:14:02.233Z,168.33
2019-01-24T09:16:36.021Z,156.37
2019-01-24T09:19:08.947Z,160.30
2019-01-24T09:21:42.596Z,151.40
2019-01-24T09:24:14.602Z,165.97
2019-01-24T09:26:45.791Z,172.80
2019-01-24T09:29:16.415Z,160.87
2019-01-24T09:31:47.402Z,156.37
2019-01-24T09:34:18.114Z,162.20
2019-01-24T09:36:50.586Z,166.67
2019-01-24T09:39:21.256Z,168.43
2019-01-24T09:41:53.312Z,152.70
2019-01-24T09:44:25.493Z,162.77
2019-01-24T09:46:57.547Z,144.10
2019-01-24T09:49:28.942Z,149.67
2019-01-24T09:52:01.245Z,152.53
2019-01-24T09:54:32.202Z,159.43
2019-01-24T09:57:03.289Z,145.03
2019-01-24T09:59:37.507Z,154.00
2019-01-24T10:02:11.497Z,155.83
2019-01-24T10:04:42.807Z,158.57
2019-01-24T10:07:18.031Z,158.93
2019-01-24T10:09:51.146Z,153.77
2019-01-24T10:12:25.101Z,156.63
2019-01-24T10:14:58.931Z,148.60
2019-01-24T10:17:30.418Z,147.47
2019-01-24T10:20:01.818Z,142.83
2019-01-24T10:22:35.318Z,137.87
2019-01-24T10:25:12.567Z,147.83
2019-01-24T10:27:49.406Z,138.00
2019-01-24T10:30:18.952Z,140.60
2019-01-24T10:32:57.471Z,155.73
2019-01-24T10:35:28.381Z,132.70
2019-01-24T10:37:59.422Z,145.23
2019-01-24T10:40:31.507Z,149.83
2019-01-24T10:43:05.233Z,139.10
2019-01-24T10:45:36.032Z,142.20
2019-01-24T10:48:10.257Z,161.03
2019-01-24T10:50:43.614Z,144.97
2019-01-24T10:53:14.732Z,152.63
2019-01-24T10:55:46.093Z,159.33
2019-01-24T10:58:19.992Z,154.37
2019-01-24T11:00:56.462Z,155.80
2019-01-24T11:03:30.041Z,141.63
2019-01-24T11:06:07.026Z,143.23
2019-01-24T11:08:51.235Z,151.83
2019-01-24T11:11:30.768Z,149.90
2019-01-24T11:14:02.392Z,166.53
2019-01-24T11:16:35.902Z,167.27
2019-01-24T11:19:07.128Z,149.53
2019-01-24T11:21:39.138Z,140.00
2019-01-24T11:24:15.952Z,143.63
2019-01-24T11:26:51.379Z,147.03
2019-01-24T11:29:22.278Z,145.33
2019-01-24T11:31:55.031Z,139.00
2019-01-24T11:34:26.198Z,133.03
2019-01-24T11:36:57.478Z,134.23
2019-01-24T11:39:35.409Z,118.10
2019-01-24T11:42:06.582Z,126.60
2019-01-24T11:44:39.764Z,134.70
2019-01-24T11:47:10.581Z,132.53
2019-01-24T11:49:42.322Z,129.23
2019-01-24T11:52:15.768Z,132.17
2019-01-24T11:54:46.863Z,113.27
2019-01-24T11:57:17.917Z,126.40
2019-01-24T11:59:51.332Z,121.63
2019-01-24T12:02:25.090Z,117.77
2019-01-24T12:04:59.188Z,129.97
2019-01-24T12:07:33.552Z,125.63
2019-01-24T12:10:05.064Z,122.57
2019-01-24T12:12:36.034Z,134.90
2019-01-24T12:15:09.838Z,119.27
2019-01-24T12:17:42.437Z,122.53
2019-01-24T12:20:16.507Z,132.67
2019-01-24T12:22:47.330Z,133.73
2019-01-24T12:25:18.694Z,122.37
2019-01-24T12:27:50.082Z,124.13
2019-01-24T12:30:39.499Z,114.50
2019-01-24T12:33:10.794Z,125.20
2019-01-24T12:35:44.389Z,131.27
2019-01-24T12:38:19.739Z,124.30
2019-01-24T12:40:52.971Z,125.80
2019-01-24T12:43:35.003Z,140.90
2019-01-24T12:46:09.309Z,138.03
2019-01-24T12:48:42.083Z,131.47
2019-01-24T12:51:13.333Z,140.30
2019-01-24T12:53:47.425Z,138.47
2019-01-24T12:56:22.190Z,133.73
2019-01-24T12:58:54.532Z,141.43
2019-01-24T13:01:25.576Z,143.47
2019-01-24T13:03:56.994Z,148.70
2019-01-24T13:06:30.843Z,145.80
2019-01-24T13:09:01.890Z,143.77
2019-01-24T13:11:33.797Z,134.77
2019-01-24T13:14:06.004Z,163.90
2019-01-24T13:16:38.384Z,143.87
2019-01-24T13:19:09.222Z,141.87
2019-01-24T13:21:42.145Z,127.83
2019-01-24T13:24:13.608Z,136.43
2019-01-24T13:26:44.548Z,151.73
2019-01-24T13:29:21.694Z,148.57
2019-01-24T13:31:52.977Z,148.40
2019-01-24T13:34:23.543Z,143.77
2019-01-24T13:36:54.530Z,152.33
2019-01-24T13:39:30.387Z,143.83
2019-01-24T13:42:04.734Z,140.30
2019-01-24T13:44:37.480Z,141.63
2019-01-24T13:47:10.319Z,156.57
2019-01-24T13:49:41.639Z,127.13
2019-01-24T13:52:14.429Z,142.77
2019-01-24T13:54:45.223Z,137.40
2019-01-24T13:57:18.683Z,152.77
2019-01-24T13:59:52.699Z,143.80
2019-01-24T14:02:28.898Z,129.63
2019-01-24T14:05:14.189Z,132.30
2019-01-24T14:07:45.306Z,133.10
2019-01-24T14:10:23.614Z,134.73
2019-01-24T14:15:45.388Z,140.20
2019-01-24T14:18:16.245Z,154.70
2019-01-24T14:20:47.587Z,134.80
2019-01-24T14:23:21.343Z,152.43
2019-01-24T14:25:52.793Z,128.77
2019-01-24T14:28:23.819Z,127.37
2019-01-24T14:30:54.968Z,144.00
2019-01-24T14:33:25.731Z,129.07
2019-01-24T14:35:57.769Z,142.70
2019-01-24T14:38:33.285Z,131.17
2019-01-24T14:41:08.168Z,143.50
2019-01-24T14:43:40.640Z,144.13
2019-01-24T14:46:13.713Z,125.47
2019-01-24T14:48:52.911Z,124.97
2019-01-24T14:51:25.994Z,134.43
2019-01-24T14:53:57.204Z,139.47
2019-01-24T14:56:28.418Z,146.17
2019-01-24T14:58:59.484Z,149.40
2019-01-24T15:01:30.965Z,160.00
2019-01-24T15:04:02.331Z,144.20
2019-01-24T15:06:34.002Z,137.93
2019-01-24T15:09:11.522Z,164.60
2019-01-24T15:11:45.090Z,129.40
2019-01-24T15:14:16.446Z,146.60
2019-01-24T15:16:47.996Z,160.53
2019-01-24T15:19:19.990Z,148.63
2019-01-24T15:21:51.975Z,145.17
2019-01-24T15:24:28.554Z,155.77
2019-01-24T15:27:01.414Z,146.97
2019-01-24T15:29:32.361Z,143.83
2019-01-24T15:32:06.362Z,144.57
2019-01-24T15:34:42.985Z,145.97
2019-01-24T15:37:18.429Z,152.80
2019-01-24T15:39:49.449Z,144.13
2019-01-24T15:42:23.691Z,153.70
2019-01-24T15:44:57.994Z,149.03
2019-01-24T15:47:29.130Z,136.87
2019-01-24T15:50:03.571Z,145.07
2019-01-24T15:52:34.710Z,138.70
2019-01-24T15:55:06.174Z,135.07
2019-01-24T15:57:37.175Z,149.70
2019-01-24T16:00:11.857Z,137.67
2019-01-24T16:02:52.271Z,148.43
2019-01-24T16:05:25.281Z,142.90
2019-01-24T16:08:01.627Z,134.83
2019-01-24T16:10:29.067Z,148.63
2019-01-24T16:13:00.137Z,138.77
2019-01-24T16:15:33.010Z,135.20
2019-01-24T16:18:04.726Z,162.17
2019-01-24T16:20:35.926Z,130.00
2019-01-24T16:23:07.050Z,137.83
2019-01-24T16:25:39.470Z,154.90
2019-01-24T16:28:10.128Z,139.27
2019-01-24T16:30:42.203Z,142.37
2019-01-24T16:33:12.927Z,147.27
2019-01-24T16:35:43.941Z,125.60
2019-01-24T16:38:14.799Z,158.73
2019-01-24T16:40:45.748Z,149.40
2019-01-24T16:43:16.509Z,152.83
2019-01-24T16:45:47.470Z,170.33
2019-01-24T16:48:18.632Z,158.53
2019-01-24T16:50:49.634Z,142.53
2019-01-24T16:53:20.551Z,149.40
2019-01-24T16:55:51.243Z,147.90
2019-01-24T16:58:22.901Z,154.00
2019-01-24T17:01:15.100Z,145.07
2019-01-24T17:03:45.920Z,134.17
2019-01-24T17:06:16.868Z,144.20
2019-01-24T17:08:48.717Z,137.33
2019-01-24T17:11:19.431Z,145.97
2019-01-24T17:13:50.165Z,134.83
2019-01-24T17:16:22.117Z,140.33
2019-01-24T17:18:52.966Z,152.03
2019-01-24T17:21:24.835Z,144.60
2019-01-24T17:23:56.011Z,121.20
2019-01-24T17:26:26.621Z,140.70
2019-01-24T17:28:57.126Z,145.83
2019-01-24T17:31:28.237Z,135.10
2019-01-24T17:33:59.661Z,137.10
2019-01-24T17:36:33.240Z,132.93
2019-01-24T17:39:05.580Z,137.03
2019-01-24T17:41:36.271Z,130.70
2019-01-24T17:44:06.802Z,135.07
2019-01-24T17:46:37.589Z,140.13
2019-01-24T17:49:08.662Z,131.90
2019-01-24T17:51:39.353Z,155.00
2019-01-24T17:54:11.202Z,146.50
2019-01-24T17:56:42.005Z,144.27
2019-01-24T17:59:14.297Z,137.90
2019-01-24T18:01:46.343Z,148.80
2019-01-24T18:04:21.661Z,159.37
2019-01-24T18:06:51.743Z,155.60
2019-01-24T18:09:23.730Z,157.67
2019-01-24T18:11:54.576Z,165.20
2019-01-24T18:14:26.274Z,164.63
2019-01-24T18:16:56.941Z,158.37
2019-01-24T18:19:28.216Z,173.33
2019-01-24T18:21:58.946Z,172.23
2019-01-24T18:24:29.801Z,171.60
2019-01-24T18:27:00.362Z,170.60
2019-01-24T18:29:31.944Z,159.37
2019-01-24T18:32:02.933Z,179.83
2019-01-24T18:34:34.057Z,186.43
2019-01-24T18:37:05.219Z,182.57
2019-01-24T18:39:37.967Z,154.00
2019-01-24T18:42:09.872Z,166.00
2019-01-24T18:44:41.233Z,199.37
2019-01-24T18:47:14.095Z,161.50
2019-01-24T18:49:49.856Z,180.17
2019-01-24T18:52:22.001Z,175.17
2019-01-24T18:54:52.781Z,193.57
2019-01-24T18:57:24.725Z,178.03
2019-01-24T18:59:56.779Z,189.13
2019-01-24T19:02:27.866Z,191.00
2019-01-24T19:05:00.991Z,166.50
2019-01-24T19:07:31.708Z,165.20
2019-01-24T19:10:06.376Z,163.87
2019-01-24T19:12:37.425Z,189.57
2019-01-24T19:15:12.046Z,156.70
2019-01-24T19:17:45.313Z,168.63
2019-01-24T19:20:18.201Z,183.47
2019-01-24T19:22:49.187Z,211.97
2019-01-24T19:25:20.917Z,177.87
2019-01-24T19:27:53.817Z,176.47
2019-01-24T19:30:29.275Z,197.50
2019-01-24T19:33:00.474Z,176.03
2019-01-24T19:35:31.489Z,197.73
2019-01-24T19:38:02.555Z,194.87
2019-01-24T19:40:33.974Z,189.50
2019-01-24T19:43:05.344Z,178.77
2019-01-24T19:45:36.252Z,190.83
2019-01-24T19:48:07.517Z,192.73
2019-01-24T19:51:01.422Z,185.17
2019-01-24T19:53:33.521Z,194.70
2019-01-24T19:56:04.719Z,197.57
2019-01-24T19:58:36.852Z,196.40
2019-01-24T20:01:07.949Z,194.23
2019-01-24T20:03:39.164Z,199.20
2019-01-24T20:06:10.396Z,170.67
2019-01-24T20:08:42.278Z,201.30
2019-01-24T20:11:13.092Z,173.80
2019-01-24T20:13:43.966Z,189.23
2019-01-24T20:16:14.827Z,191.17
2019-01-24T20:18:47.648Z,190.80
2019-01-24T20:21:18.798Z,198.67
2019-01-24T20:23:50.417Z,180.70
2019-01-24T20:26:27.261Z,196.03
2019-01-24T20:28:58.451Z,190.40
2019-01-24T20:31:29.429Z,196.57
2019-01-24T20:34:00.292Z,204.33
2019-01-24T20:36:31.387Z,218.23
2019-01-24T20:39:07.480Z,205.33
2019-01-24T20:41:37.545Z,185.47
2019-01-24T20:44:09.828Z,206.40
2019-01-24T20:46:40.940Z,191.57
2019-01-24T20:49:12.618Z,179.80
2019-01-24T20:51:46.424Z,185.53
2019-01-24T20:54:17.602Z,186.60
2019-01-24T20:56:48.513Z,186.40
2019-01-24T20:59:20.208Z,202.93
2019-01-24T21:01:50.969Z,194.07
2019-01-24T21:04:21.763Z,172.70
2019-01-24T21:06:52.428Z,181.97
2019-01-24T21:09:26.481Z,183.07
2019-01-24T21:11:57.099Z,201.30
2019-01-24T21:14:28.008Z,200.30
2019-01-24T21:16:59.279Z,187.83
2019-01-24T21:19:29.946Z,194.10
2019-01-24T21:22:01.869Z,192.87
2019-01-24T21:24:32.730Z,188.53
2019-01-24T21:27:03.764Z,188.70
2019-01-24T21:29:35.274Z,198.13
2019-01-24T21:32:06.067Z,198.10
2019-01-24T21:34:37.479Z,197.73
2019-01-24T21:37:12.448Z,211.87
2019-01-24T21:39:43.924Z,184.03
2019-01-24T21:42:14.774Z,181.40
2019-01-24T21:44:45.111Z,191.13
2019-01-24T21:47:16.023Z,202.43
2019-01-24T21:49:46.489Z,188.10
2019-01-24T21:52:18.853Z,201.67
2019-01-24T21:54:49.320Z,196.17
2019-01-24T21:57:19.865Z,207.30
2019-01-24T21:59:50.468Z,210.93
2019-01-24T22:02:21.178Z,190.20
2019-01-24T22:04:51.672Z,207.07
2019-01-24T22:07:22.298Z,191.97
2019-01-24T22:09:53.062Z,202.10
2019-01-24T22:12:23.859Z,194.90
2019-01-24T22:14:54.451Z,188.97
2019-01-24T22:17:25.095Z,217.27
2019-01-24T22:19:55.738Z,202.30
2019-01-24T22:22:29.315Z,205.47
2019-01-24T22:24:59.845Z,200.87
2019-01-24T22:27:30.590Z,197.17
2019-01-24T22:30:01.172Z,199.30
2019-01-24T22:32:31.679Z,181.33
2019-01-24T22:35:02.212Z,200.73
2019-01-24T22:37:32.904Z,202.00
2019-01-24T22:40:03.449Z,195.63
2019-01-24T22:42:33.975Z,212.00
2019-01-24T22:45:05.491Z,203.57
2019-01-24T22:47:36.309Z,195.83
2019-01-24T22:50:08.587Z,203.07
2019-01-24T22:52:39.561Z,207.27
2019-01-24T22:55:11.254Z,196.83
2019-01-24T22:57:41.727Z,209.00
2019-01-24T23:00:35.964Z,197.07
2019-01-24T23:03:07.685Z,186.47
2019-01-24T23:05:38.263Z,190.20
2019-01-24T23:08:08.780Z,191.67
2019-01-24T23:10:39.288Z,201.07
2019-01-24T23:13:09.969Z,209.47
2019-01-24T23:15:40.535Z,203.70
2019-01-24T23:18:10.910Z,200.33
2019-01-24T23:20:41.768Z,198.13
2019-01-24T23:23:12.427Z,216.77
2019-01-24T23:25:42.853Z,194.73
2019-01-24T23:28:13.280Z,184.67
2019-01-24T23:30:43.864Z,206.03
2019-01-24T23:33:14.545Z,220.70
2019-01-24T23:35:45.073Z,212.73
2019-01-24T23:38:15.664Z,223.10
2019-01-24T23:40:46.087Z,194.87
2019-01-24T23:43:16.526Z,211.30
2019-01-24T23:45:47.010Z,201.93
2019-01-24T23:48:17.419Z,206.33
2019-01-24T23:50:48.143Z,212.60
2019-01-24T23:53:19.288Z,216.57
2019-01-24T23:55:49.809Z,211.70
2019-01-24T23:58:20.326Z,223.70
